Time;durP1;ratioP1;P1;durP2;ratioP2;P2;SDS_P1;SDS_P2;PMS_P1;PMS_P2;Temp;Humidity;BMP_temperature;BMP_pressure;BME280_temperature;BME280_humidity;BME280_pressure;Samples;Min_cycle;Max_cycle;Signal;HPM_P1;HPM_P2
2023/07/14 00:00:16;;;;;;;1.60;1.20;;;26.20;46.10;;;;;;6112564;22;89178;-85
2023/07/14 00:02:45;;;;;;;1.60;1.30;;;26.20;45.90;;;;;;6113781;22;88966;-86
2023/07/14 00:05:36;;;;;;;1.45;1.20;;;26.20;46.00;;;;;;6140631;22;87223;-85
2023/07/14 00:08:03;;;;;;;1.60;1.20;;;26.10;46.20;;;;;;6105767;22;89509;-85
2023/07/14 00:10:34;;;;;;;1.70;1.50;;;26.20;46.20;;;;;;6112255;22;93669;-86
2023/07/14 00:13:07;;;;;;;2.20;1.33;;;26.10;46.20;;;;;;6139981;22;88665;-85
2023/07/14 00:15:35;;;;;;;1.30;1.20;;;26.10;46.10;;;;;;6139488;22;87786;-86
2023/07/14 00:18:14;;;;;;;1.40;1.30;;;26.20;46.20;;;;;;6138738;22;87352;-86
2023/07/14 00:20:40;;;;;;;2.92;1.48;;;26.10;46.10;;;;;;6139830;22;87601;-84
2023/07/14 00:23:11;;;;;;;1.30;1.10;;;26.10;46.70;;;;;;6141080;22;87597;-85
2023/07/14 00:25:37;;;;;;;1.90;1.73;;;26.20;46.20;;;;;;6113324;22;87451;-85
2023/07/14 00:28:11;;;;;;;1.52;1.35;;;26.20;46.10;;;;;;6140385;22;86613;-84
2023/07/14 00:30:37;;;;;;;1.65;1.25;;;26.20;46.00;;;;;;6138877;22;88079;-85
2023/07/14 00:33:14;;;;;;;2.70;1.25;;;26.20;46.20;;;;;;6111901;22;88906;-85
2023/07/14 00:35:41;;;;;;;1.85;1.27;;;26.20;46.20;;;;;;6139445;22;88248;-86
2023/07/14 00:38:06;;;;;;;1.45;1.20;;;26.10;46.10;;;;;;6139986;22;87677;-85
2023/07/14 00:40:39;;;;;;;2.10;1.70;;;26.20;46.10;;;;;;6140044;22;88343;-85
2023/07/14 00:43:11;;;;;;;1.67;1.30;;;26.10;46.00;;;;;;6139781;22;87669;-85
2023/07/14 00:45:37;;;;;;;2.28;1.58;;;26.20;45.90;;;;;;6139913;22;87663;-84
2023/07/14 00:48:04;;;;;;;1.20;1.10;;;26.20;46.00;;;;;;6112451;22;87590;-86
2023/07/14 00:50:48;;;;;;;1.73;1.38;;;26.20;46.00;;;;;;6112829;22;90543;-86
2023/07/14 00:53:34;;;;;;;1.77;1.27;;;26.20;46.20;;;;;;6139205;22;91753;-84
2023/07/14 00:55:59;;;;;;;1.65;1.50;;;26.10;46.10;;;;;;6114074;22;87879;-86
2023/07/14 00:58:27;;;;;;;2.80;1.15;;;26.10;46.20;;;;;;6139576;22;87213;-85
2023/07/14 01:01:24;;;;;;;1.27;1.15;;;26.10;46.10;;;;;;6111056;22;90984;-86
2023/07/14 01:03:57;;;;;;;1.70;1.40;;;26.10;46.00;;;;;;6111017;22;90096;-85
2023/07/14 01:06:38;;;;;;;2.33;1.50;;;26.10;46.70;;;;;;6139677;22;87238;-85
2023/07/14 01:09:14;;;;;;;2.65;1.40;;;26.10;46.00;;;;;;6140161;22;88380;-85
2023/07/14 01:11:47;;;;;;;1.73;1.30;;;26.10;46.10;;;;;;6139838;22;87841;-86
2023/07/14 01:14:21;;;;;;;2.15;1.48;;;26.10;46.00;;;;;;6140915;22;87513;-86
2023/07/14 01:16:52;;;;;;;2.55;1.35;;;26.10;46.10;;;;;;6138393;22;87286;-85
2023/07/14 01:19:48;;;;;;;1.15;1.08;;;26.10;46.40;;;;;;6138360;22;87410;-85
2023/07/14 01:22:48;;;;;;;1.55;1.35;;;26.10;46.30;;;;;;6112097;22;89334;-86
2023/07/14 01:25:35;;;;;;;1.63;1.25;;;26.10;46.10;;;;;;6111848;22;89213;-84
2023/07/14 01:28:13;;;;;;;1.95;1.30;;;26.10;46.20;;;;;;6139352;22;88259;-85
2023/07/14 01:30:40;;;;;;;1.47;1.30;;;26.10;46.20;;;;;;6111639;22;88775;-86
2023/07/14 01:33:15;;;;;;;1.98;1.27;;;26.10;46.30;;;;;;6140061;22;88441;-85
2023/07/14 01:35:45;;;;;;;1.30;1.20;;;26.10;46.30;;;;;;6139810;22;88585;-85
2023/07/14 01:38:11;;;;;;;1.63;1.20;;;26.10;46.40;;;;;;6114229;22;87446;-86
2023/07/14 01:40:37;;;;;;;1.30;1.13;;;26.10;46.50;;;;;;6138110;22;87373;-84
2023/07/14 01:43:04;;;;;;;1.08;0.95;;;26.10;46.40;;;;;;6138425;22;88467;-86
2023/07/14 01:45:40;;;;;;;2.00;1.45;;;26.10;46.40;;;;;;6138618;22;87913;-85
2023/07/14 01:48:10;;;;;;;2.50;1.38;;;26.10;46.30;;;;;;6138836;22;87592;-85
2023/07/14 01:50:40;;;;;;;1.50;1.25;;;26.10;46.30;;;;;;6139852;22;87582;-87
2023/07/14 01:53:31;;;;;;;1.70;1.40;;;26.10;46.30;;;;;;6111519;22;94082;-84
2023/07/14 01:56:01;;;;;;;1.35;1.25;;;26.10;46.30;;;;;;6111211;22;91198;-84
2023/07/14 01:58:49;;;;;;;1.30;1.20;;;26.10;46.30;;;;;;6111688;22;87280;-85
2023/07/14 02:01:16;;;;;;;1.45;1.30;;;26.00;46.20;;;;;;6138607;22;87461;-84
2023/07/14 02:03:46;;;;;;;1.17;1.02;;;26.00;46.40;;;;;;6138057;22;88130;-84
2023/07/14 02:06:12;;;;;;;1.75;1.27;;;26.00;46.30;;;;;;6111162;22;91010;-84
2023/07/14 02:08:38;;;;;;;1.60;1.20;;;26.00;46.40;;;;;;6139799;22;87178;-84
2023/07/14 02:11:04;;;;;;;1.48;1.30;;;26.00;46.50;;;;;;6111843;22;89946;-84
2023/07/14 02:13:32;;;;;;;2.33;1.55;;;26.00;46.40;;;;;;6137306;22;88545;-84
2023/07/14 02:15:58;;;;;;;1.58;1.40;;;26.00;46.60;;;;;;6137536;22;87971;-84
2023/07/14 02:18:26;;;;;;;1.48;1.30;;;26.00;46.60;;;;;;6137613;22;88665;-85
2023/07/14 02:20:54;;;;;;;1.92;1.25;;;26.00;46.60;;;;;;6110863;22;87747;-85
2023/07/14 02:23:22;;;;;;;1.58;1.35;;;26.00;46.50;;;;;;6138948;22;88354;-84
2023/07/14 02:26:05;;;;;;;1.20;1.10;;;26.00;46.50;;;;;;6138004;22;87869;-85
2023/07/14 02:28:30;;;;;;;1.50;1.25;;;26.00;46.60;;;;;;6138828;22;87297;-84
2023/07/14 02:31:04;;;;;;;1.42;1.20;;;26.00;46.50;;;;;;6138116;22;87320;-85
2023/07/14 02:33:37;;;;;;;2.08;1.67;;;26.00;46.70;;;;;;6113064;22;90616;-85
2023/07/14 02:36:21;;;;;;;1.58;1.38;;;26.00;46.80;;;;;;6139498;22;88066;-84
2023/07/14 02:38:47;;;;;;;2.05;1.30;;;26.00;46.70;;;;;;6139494;22;87286;-85
2023/07/14 02:41:29;;;;;;;1.27;1.17;;;26.00;46.80;;;;;;6139787;22;87602;-85
2023/07/14 02:44:00;;;;;;;1.45;1.25;;;26.00;46.80;;;;;;6138549;22;89085;-85
2023/07/14 02:46:33;;;;;;;2.65;1.48;;;25.90;46.80;;;;;;6139600;22;89135;-84
2023/07/14 02:48:58;;;;;;;1.30;1.10;;;26.00;46.90;;;;;;6139594;22;87096;-84
2023/07/14 02:51:24;;;;;;;1.20;0.95;;;25.90;46.60;;;;;;6111969;22;89170;-87
2023/07/14 02:53:50;;;;;;;1.20;1.10;;;25.90;46.90;;;;;;6139443;22;87315;-85
2023/07/14 02:56:15;;;;;;;1.20;1.10;;;25.90;46.90;;;;;;6140593;22;87654;-84
2023/07/14 02:58:41;;;;;;;1.48;1.33;;;25.90;47.00;;;;;;6113610;22;87600;-85
2023/07/14 03:01:07;;;;;;;1.58;1.48;;;25.90;46.80;;;;;;6112648;22;89038;-85
2023/07/14 03:03:34;;;;;;;1.15;1.05;;;25.90;46.90;;;;;;6138824;22;88450;-84
2023/07/14 03:06:00;;;;;;;2.90;1.42;;;25.90;47.10;;;;;;6138688;22;88248;-85
2023/07/14 03:08:29;;;;;;;1.25;1.15;;;25.90;47.10;;;;;;6113372;22;88518;-85
2023/07/14 03:10:57;;;;;;;1.83;1.38;;;25.90;47.00;;;;;;6138834;22;91277;-87
2023/07/14 03:13:23;;;;;;;1.52;1.00;;;25.90;47.00;;;;;;6138649;22;87729;-85
2023/07/14 03:15:49;;;;;;;1.67;1.10;;;25.90;47.10;;;;;;6112611;22;90511;-85
2023/07/14 03:18:14;;;;;;;1.95;1.38;;;25.90;47.00;;;;;;6112622;22;88991;-85
2023/07/14 03:20:41;;;;;;;1.65;1.23;;;25.90;46.90;;;;;;6113233;22;89296;-85
2023/07/14 03:23:07;;;;;;;1.73;1.10;;;25.90;47.10;;;;;;6140270;22;87780;-85
2023/07/14 03:25:33;;;;;;;1.27;1.17;;;25.90;47.10;;;;;;6139410;22;87751;-84
2023/07/14 03:28:01;;;;;;;1.98;1.15;;;25.90;47.00;;;;;;6111468;22;87700;-84
2023/07/14 03:30:27;;;;;;;1.20;1.10;;;25.90;46.80;;;;;;6111078;22;88007;-84
2023/07/14 03:32:53;;;;;;;1.15;1.05;;;25.90;46.90;;;;;;6112072;22;91728;-85
2023/07/14 03:35:19;;;;;;;1.23;1.13;;;25.90;46.80;;;;;;6139436;22;88241;-85
2023/07/14 03:37:46;;;;;;;2.03;1.20;;;25.80;46.80;;;;;;6112692;22;87357;-85
2023/07/14 03:40:12;;;;;;;0.88;0.88;;;25.80;46.80;;;;;;6138855;22;88249;-85
2023/07/14 03:42:38;;;;;;;1.30;1.20;;;25.80;46.70;;;;;;6111563;22;89385;-85
2023/07/14 03:45:05;;;;;;;1.40;1.25;;;25.80;46.70;;;;;;6139324;22;87481;-84
2023/07/14 03:47:31;;;;;;;1.42;1.27;;;25.80;46.80;;;;;;6140798;22;87443;-85
2023/07/14 03:49:57;;;;;;;1.20;1.05;;;25.80;46.70;;;;;;6140359;22;86707;-85
2023/07/14 03:52:23;;;;;;;1.40;1.10;;;25.90;46.90;;;;;;6112708;22;90276;-85
2023/07/14 03:54:49;;;;;;;1.80;1.00;;;25.90;46.80;;;;;;6113135;22;90331;-85
2023/07/14 03:57:14;;;;;;;1.42;1.33;;;25.80;46.70;;;;;;6111764;22;88421;-84
2023/07/14 03:59:40;;;;;;;1.30;1.10;;;25.80;47.50;;;;;;6112319;22;88694;-85
2023/07/14 04:02:06;;;;;;;1.38;1.25;;;25.80;46.90;;;;;;6112669;22;90622;-84
2023/07/14 04:04:31;;;;;;;1.20;1.10;;;25.80;46.60;;;;;;6139051;22;88238;-84
2023/07/14 04:06:57;;;;;;;1.50;1.40;;;25.80;46.70;;;;;;6139337;22;87477;-84
2023/07/14 04:09:23;;;;;;;3.03;1.50;;;25.80;46.80;;;;;;6139843;22;87256;-84
2023/07/14 04:11:49;;;;;;;1.45;1.35;;;25.80;46.90;;;;;;6139634;22;87420;-84
2023/07/14 04:14:16;;;;;;;0.98;0.90;;;25.80;46.90;;;;;;6141018;22;87617;-86
2023/07/14 04:16:41;;;;;;;1.13;1.02;;;25.80;46.90;;;;;;6139823;22;86967;-85
2023/07/14 04:19:07;;;;;;;1.42;1.33;;;25.80;46.70;;;;;;6139271;22;87487;-85
2023/07/14 04:21:33;;;;;;;1.65;1.30;;;25.80;46.70;;;;;;6138529;22;88451;-85
2023/07/14 04:23:59;;;;;;;1.00;0.90;;;25.80;46.80;;;;;;6112230;22;89965;-85
2023/07/14 04:26:26;;;;;;;1.50;1.20;;;25.70;46.90;;;;;;6140520;22;87387;-85
2023/07/14 04:28:52;;;;;;;1.08;0.98;;;25.80;46.90;;;;;;6112244;22;89911;-85
2023/07/14 04:31:17;;;;;;;1.30;1.20;;;25.80;46.80;;;;;;6140890;22;87882;-85
2023/07/14 04:33:48;;;;;;;1.20;1.10;;;25.80;46.80;;;;;;6139521;22;87747;-85
2023/07/14 04:36:15;;;;;;;1.23;1.13;;;25.80;46.70;;;;;;6139238;22;87481;-84
2023/07/14 04:38:42;;;;;;;1.20;1.10;;;25.80;46.70;;;;;;6140139;22;87493;-84
2023/07/14 04:41:12;;;;;;;1.25;1.13;;;25.80;46.70;;;;;;6113048;22;91393;-84
2023/07/14 04:43:38;;;;;;;1.17;1.08;;;25.80;46.60;;;;;;6138850;22;87781;-85
2023/07/14 04:46:03;;;;;;;1.30;1.20;;;25.80;46.70;;;;;;6112048;22;88536;-83
2023/07/14 04:48:29;;;;;;;1.65;1.20;;;25.80;46.60;;;;;;6139275;22;87615;-85
2023/07/14 04:50:54;;;;;;;1.15;1.05;;;25.80;46.70;;;;;;6139414;22;88266;-84
2023/07/14 04:53:20;;;;;;;1.30;1.10;;;25.80;46.80;;;;;;6112123;22;89089;-84
2023/07/14 04:55:46;;;;;;;1.20;1.10;;;25.70;46.90;;;;;;6138902;22;87405;-85
2023/07/14 04:58:15;;;;;;;2.30;1.40;;;25.80;46.90;;;;;;6138132;22;87351;-85
2023/07/14 05:00:44;;;;;;;0.95;0.90;;;25.70;46.80;;;;;;6110912;22;89960;-85
2023/07/14 05:03:10;;;;;;;1.20;1.10;;;25.80;47.00;;;;;;6140016;22;87445;-84
2023/07/14 05:05:36;;;;;;;1.38;1.17;;;25.80;46.80;;;;;;6140039;22;87075;-84
2023/07/14 05:08:02;;;;;;;1.50;1.20;;;25.90;46.80;;;;;;6139593;22;87567;-84
2023/07/14 05:10:31;;;;;;;1.33;1.23;;;25.90;46.70;;;;;;6139012;22;88920;-84
2023/07/14 05:12:57;;;;;;;1.30;1.15;;;25.90;46.60;;;;;;6112499;22;90449;-84
2023/07/14 05:15:25;;;;;;;1.08;1.00;;;26.00;46.70;;;;;;6138753;22;87607;-84
2023/07/14 05:17:51;;;;;;;1.20;1.10;;;26.00;46.50;;;;;;6137313;22;87203;-84
2023/07/14 05:20:18;;;;;;;1.40;1.30;;;26.00;46.40;;;;;;6112612;22;90442;-85
2023/07/14 05:22:46;;;;;;;1.02;0.93;;;26.10;46.50;;;;;;6111261;22;90320;-85
2023/07/14 05:25:13;;;;;;;1.60;1.23;;;26.10;46.40;;;;;;6139122;22;87633;-84
2023/07/14 05:27:41;;;;;;;1.15;1.05;;;26.10;46.30;;;;;;6110979;22;89312;-84
2023/07/14 05:30:09;;;;;;;1.17;1.00;;;26.10;46.30;;;;;;6110099;22;89590;-85
2023/07/14 05:32:35;;;;;;;1.20;1.10;;;26.20;46.30;;;;;;6145650;22;88357;-82
2023/07/14 05:35:00;;;;;;;3.50;1.75;;;26.20;46.10;;;;;;6138385;22;88693;-82
2023/07/14 05:37:26;;;;;;;247.60;50.45;;;26.20;45.80;;;;;;6139511;22;88400;-82
2023/07/14 05:39:52;;;;;;;126.18;26.88;;;25.90;45.70;;;;;;6137797;22;88015;-83
2023/07/14 05:42:17;;;;;;;74.50;17.42;;;25.80;45.80;;;;;;6132984;22;88313;-83
2023/07/14 05:44:43;;;;;;;47.45;10.63;;;25.70;45.90;;;;;;6137627;22;87294;-82
2023/07/14 05:47:09;;;;;;;35.95;7.78;;;25.60;46.40;;;;;;6138321;22;87611;-82
2023/07/14 05:49:35;;;;;;;21.35;5.60;;;25.50;46.30;;;;;;6138933;22;87958;-84
2023/07/14 05:52:01;;;;;;;18.60;5.18;;;25.50;46.50;;;;;;6139258;22;87625;-82
2023/07/14 05:54:27;;;;;;;16.05;4.03;;;25.50;46.50;;;;;;6140700;22;87766;-84
2023/07/14 05:56:53;;;;;;;14.63;4.18;;;25.50;46.40;;;;;;6140115;22;87509;-82
2023/07/14 05:59:19;;;;;;;8.95;2.88;;;25.50;46.70;;;;;;6139295;22;89031;-83
2023/07/14 06:01:46;;;;;;;8.18;2.72;;;25.50;46.90;;;;;;6138589;22;88235;-83
2023/07/14 06:04:12;;;;;;;6.60;2.50;;;25.50;47.10;;;;;;6137249;22;87874;-82
2023/07/14 06:06:38;;;;;;;6.10;2.80;;;25.50;46.90;;;;;;6138545;22;87472;-82
2023/07/14 06:09:05;;;;;;;8.00;3.17;;;25.60;46.80;;;;;;6138925;22;88022;-82
2023/07/14 06:11:31;;;;;;;9.13;2.65;;;25.60;47.50;;;;;;6138231;22;87804;-83
2023/07/14 06:13:57;;;;;;;11.52;2.83;;;25.80;46.70;;;;;;6137565;22;87557;-85
2023/07/14 06:16:23;;;;;;;9.23;2.35;;;25.80;46.60;;;;;;6138637;22;87737;-85
2023/07/14 06:18:50;;;;;;;10.63;2.75;;;25.80;46.40;;;;;;6138426;22;87518;-83
2023/07/14 06:21:15;;;;;;;8.77;2.95;;;25.80;46.30;;;;;;6138942;22;87810;-84
2023/07/14 06:23:41;;;;;;;4.57;2.13;;;25.60;45.70;;;;;;6138225;22;88331;-82
2023/07/14 06:26:25;;;;;;;;;;;;;;;;;;;;;
2023/07/14 06:30:03;;;;;;;10.20;2.75;;;25.70;46.50;;;;;;6083236;23;92304;-92
2023/07/14 06:38:57;;;;;;;9.57;3.05;;;25.70;46.40;;;;;;5938613;23;91698;-94
2023/07/14 06:42:03;;;;;;;8.63;2.13;;;25.70;46.50;;;;;;6083970;23;90508;-93
2023/07/14 06:44:32;;;;;;;5.35;2.13;;;25.70;46.30;;;;;;6036265;23;91654;-94
2023/07/14 06:46:57;;;;;;;6.43;2.50;;;25.60;46.10;;;;;;6105045;23;87372;-93
2023/07/14 06:49:23;;;;;;;9.75;2.80;;;25.60;46.20;;;;;;6167016;22;87441;-90
2023/07/14 06:51:58;;;;;;;5.40;2.30;;;25.60;46.40;;;;;;6134924;22;88251;-92
2023/07/14 06:54:53;;;;;;;7.25;2.58;;;25.60;46.40;;;;;;6159432;22;87665;-93
2023/07/14 06:57:30;;;;;;;7.63;2.30;;;25.60;45.70;;;;;;6114364;22;87798;-93
2023/07/14 06:59:57;;;;;;;6.03;1.95;;;25.60;45.90;;;;;;6121105;22;88076;-90
2023/07/14 07:02:22;;;;;;;8.00;2.33;;;25.70;46.00;;;;;;6120909;22;89021;-92
2023/07/14 07:04:53;;;;;;;4.50;2.20;;;25.70;45.70;;;;;;6121376;22;90464;-91
2023/07/14 07:07:18;;;;;;;7.47;2.33;;;25.70;45.60;;;;;;6120354;22;87666;-91
2023/07/14 07:09:47;;;;;;;5.35;2.60;;;25.70;45.40;;;;;;6122529;22;89048;-91
2023/07/14 07:12:15;;;;;;;5.95;2.17;;;25.70;45.10;;;;;;6108744;22;90877;-92
2023/07/14 07:14:41;;;;;;;3.90;2.30;;;25.70;45.20;;;;;;6123279;22;89792;-92
2023/07/14 07:17:06;;;;;;;4.30;1.92;;;25.60;45.50;;;;;;6123466;22;88475;-92
2023/07/14 07:19:33;;;;;;;4.47;2.40;;;25.60;45.60;;;;;;6123969;22;88098;-92
2023/07/14 07:22:01;;;;;;;7.47;2.63;;;25.60;46.00;;;;;;6123175;22;90543;-92
2023/07/14 07:24:27;;;;;;;6.95;2.65;;;25.60;46.20;;;;;;6123341;22;89731;-92
2023/07/14 07:26:58;;;;;;;4.72;2.05;;;25.70;45.50;;;;;;6123104;22;87348;-93
2023/07/14 07:29:27;;;;;;;4.75;2.50;;;25.80;45.20;;;;;;6124885;22;88816;-92
2023/07/14 07:31:53;;;;;;;4.97;2.42;;;25.70;45.00;;;;;;6123078;22;89445;-91
2023/07/14 07:34:19;;;;;;;5.97;2.58;;;25.60;45.00;;;;;;6126388;22;89486;-93
2023/07/14 07:36:45;;;;;;;5.53;2.20;;;25.70;45.30;;;;;;6123679;22;87246;-91
2023/07/14 07:39:13;;;;;;;5.78;2.08;;;25.70;45.30;;;;;;6109097;22;89593;-92
2023/07/14 07:41:39;;;;;;;7.05;2.72;;;25.70;45.30;;;;;;6123827;22;90412;-93
2023/07/14 07:44:11;;;;;;;5.07;2.60;;;25.70;45.30;;;;;;6127069;22;95366;-93
2023/07/14 07:46:40;;;;;;;9.05;2.30;;;25.80;45.40;;;;;;6114659;22;87394;-94
2023/07/14 07:49:20;;;;;;;5.28;2.63;;;25.80;45.50;;;;;;6123933;22;89846;-92
2023/07/14 07:51:45;;;;;;;8.27;2.75;;;25.80;45.20;;;;;;6124949;22;90407;-91
2023/07/14 07:54:11;;;;;;;8.27;3.00;;;25.80;45.80;;;;;;6123426;22;90454;-91
2023/07/14 07:56:41;;;;;;;7.50;2.80;;;25.80;46.20;;;;;;6125671;22;87330;-93
2023/07/14 07:59:06;;;;;;;11.13;3.28;;;25.80;46.40;;;;;;6124742;22;92114;-90
2023/07/14 08:01:38;;;;;;;7.40;2.75;;;25.90;46.50;;;;;;6122912;22;90411;-93
2023/07/14 08:04:04;;;;;;;4.35;2.45;;;25.90;46.50;;;;;;6108367;22;90069;-93
2023/07/14 08:06:34;;;;;;;6.60;2.78;;;25.70;46.80;;;;;;6121415;22;88285;-93
2023/07/14 08:09:00;;;;;;;8.88;2.88;;;25.80;47.00;;;;;;6123972;22;87724;-90
2023/07/14 08:11:26;;;;;;;7.25;2.60;;;25.70;46.90;;;;;;6124911;22;90233;-92
2023/07/14 08:14:07;;;;;;;11.45;3.47;;;25.70;47.00;;;;;;6123566;22;89474;-95
2023/07/14 08:16:32;;;;;;;14.23;3.55;;;25.70;47.00;;;;;;6123729;22;87570;-91
2023/07/14 08:18:59;;;;;;;9.82;3.05;;;25.80;46.70;;;;;;6109649;22;88628;-91
2023/07/14 08:21:40;;;;;;;7.38;2.97;;;25.80;46.60;;;;;;6112022;22;90960;-93
2023/07/14 08:24:14;;;;;;;5.40;2.88;;;25.90;46.50;;;;;;6112531;22;88778;-94
2023/07/14 08:26:40;;;;;;;7.65;3.22;;;25.90;46.60;;;;;;6125415;22;87863;-92
2023/07/14 08:29:08;;;;;;;9.23;3.10;;;25.90;46.70;;;;;;6106220;22;88187;-95
2023/07/14 08:31:34;;;;;;;10.50;3.10;;;26.00;46.60;;;;;;6130982;22;90174;-95
2023/07/14 08:34:00;;;;;;;8.68;2.45;;;25.90;46.90;;;;;;6126501;22;89534;-95
2023/07/14 08:36:37;;;;;;;8.82;2.72;;;25.90;47.10;;;;;;6129166;22;87582;-93
2023/07/14 08:39:11;;;;;;;8.65;3.70;;;25.80;47.30;;;;;;6124391;22;88378;-95
2023/07/14 08:45:29;;;;;;;7.40;2.70;;;25.90;47.40;;;;;;6107409;22;91913;-94
2023/07/14 08:48:24;;;;;;;8.18;3.10;;;26.00;47.40;;;;;;6117407;22;87774;-96
2023/07/14 08:50:59;;;;;;;6.13;2.92;;;26.00;47.30;;;;;;6124873;22;89320;-95
2023/07/14 08:53:32;;;;;;;6.38;2.70;;;26.00;47.20;;;;;;6129643;22;90026;-95
2023/07/14 08:56:29;;;;;;;8.68;2.47;;;26.10;47.40;;;;;;6109695;22;89250;-95
2023/07/14 08:59:05;;;;;;;7.75;2.60;;;26.10;47.40;;;;;;6131251;22;87866;-96
2023/07/14 09:02:04;;;;;;;7.75;2.80;;;26.00;47.70;;;;;;6114064;22;89734;-94
2023/07/14 09:04:43;;;;;;;;;;;26.10;47.80;;;;;;6129578;22;89003;-95
2023/07/14 09:07:36;;;;;;;9.43;2.95;;;26.10;47.90;;;;;;6116503;22;88837;-95
2023/07/14 09:10:01;;;;;;;7.47;2.72;;;26.10;48.00;;;;;;6140197;22;87133;-93
2023/07/14 09:12:43;;;;;;;6.20;2.47;;;26.10;48.30;;;;;;6127437;22;88745;-91
2023/07/14 09:15:26;;;;;;;;;;;;;;;;;;;;;
2023/07/14 09:18:22;;;;;;;8.55;3.38;;;26.10;48.60;;;;;;6138703;22;87457;-95
2023/07/14 09:21:30;;;;;;;8.35;3.17;;;26.20;48.60;;;;;;6080482;22;87516;-93
2023/07/14 09:24:03;;;;;;;8.73;2.75;;;26.20;48.30;;;;;;6109805;22;88862;-95
2023/07/14 09:26:41;;;;;;;8.23;3.28;;;26.20;48.40;;;;;;6122667;22;90632;-95
2023/07/14 09:29:41;;;;;;;6.78;2.75;;;26.30;48.50;;;;;;6125668;22;95426;-94
2023/07/14 09:32:26;;;;;;;8.48;2.75;;;26.30;48.40;;;;;;6116360;22;87390;-95
2023/07/14 09:38:24;;;;;;;7.60;2.80;;;26.50;48.50;;;;;;6091233;23;88525;-95
2023/07/14 09:41:11;;;;;;;7.32;2.78;;;26.50;48.30;;;;;;6081157;22;90408;-94
2023/07/14 09:43:46;;;;;;;10.57;3.05;;;26.40;48.40;;;;;;6124313;22;87719;-93
2023/07/14 09:46:51;;;;;;;7.57;3.50;;;26.50;49.10;;;;;;6116991;22;89332;-95
2023/07/14 09:49:34;;;;;;;7.40;2.97;;;26.50;48.70;;;;;;6123182;22;90498;-90
2023/07/14 09:52:21;;;;;;;7.18;2.88;;;26.50;48.90;;;;;;6121657;22;88710;-92
2023/07/14 09:54:52;;;;;;;9.77;3.45;;;26.50;48.80;;;;;;6109595;22;88462;-92
2023/07/14 09:57:20;;;;;;;8.82;2.88;;;26.50;48.70;;;;;;6130332;22;88129;-93
2023/07/14 10:00:01;;;;;;;7.37;3.17;;;26.60;48.60;;;;;;6116311;22;90796;-96
2023/07/14 10:02:34;;;;;;;6.10;2.47;;;26.60;48.70;;;;;;6126696;22;89701;-92
2023/07/14 10:05:03;;;;;;;6.10;2.92;;;26.60;48.80;;;;;;6084772;22;87965;-91
2023/07/14 10:07:34;;;;;;;4.75;2.67;;;26.70;48.80;;;;;;6122873;22;89687;-93
2023/07/14 10:10:09;;;;;;;5.10;3.00;;;26.70;48.70;;;;;;6121606;22;90360;-90
2023/07/14 10:12:47;;;;;;;5.50;2.50;;;26.80;48.50;;;;;;6122689;22;89275;-90
2023/07/14 10:15:32;;;;;;;11.93;3.03;;;26.80;48.30;;;;;;6124159;22;87440;-92
2023/07/14 10:18:14;;;;;;;11.85;2.88;;;26.70;48.40;;;;;;6126150;22;89024;-91
2023/07/14 10:20:40;;;;;;;11.93;2.45;;;26.60;48.70;;;;;;6125652;22;91474;-93
2023/07/14 10:23:14;;;;;;;10.35;3.10;;;26.70;48.60;;;;;;6124713;22;95211;-91
2023/07/14 10:25:40;;;;;;;9.55;2.50;;;26.70;48.30;;;;;;6108924;22;87381;-92
2023/07/14 10:28:16;;;;;;;8.40;2.80;;;26.60;48.60;;;;;;6126067;22;87620;-92
2023/07/14 10:31:02;;;;;;;13.77;3.15;;;26.60;48.80;;;;;;6125428;22;89221;-90
2023/07/14 10:33:50;;;;;;;12.52;3.33;;;26.60;49.00;;;;;;6124692;22;89063;-91
2023/07/14 10:36:25;;;;;;;36.30;7.18;;;26.60;48.80;;;;;;6114152;22;87480;-91
2023/07/14 10:39:06;;;;;;;49.85;7.90;;;26.60;48.80;;;;;;6124183;22;89199;-93
2023/07/14 10:41:33;;;;;;;53.17;10.55;;;26.60;48.70;;;;;;6124900;22;90252;-91
2023/07/14 10:44:03;;;;;;;71.20;19.20;;;26.80;48.40;;;;;;6123735;22;89056;-91
2023/07/14 10:46:43;;;;;;;95.93;24.17;;;26.80;48.20;;;;;;6122041;22;88605;-92
2023/07/14 10:49:23;;;;;;;99.65;26.50;;;26.80;48.10;;;;;;6122872;22;89279;-92
2023/07/14 10:52:13;;;;;;;91.70;26.70;;;26.70;48.20;;;;;;6122769;22;89589;-92
2023/07/14 10:54:53;;;;;;;88.93;26.40;;;26.70;48.00;;;;;;6108301;22;90409;-93
2023/07/14 10:57:49;;;;;;;82.43;24.55;;;26.70;48.00;;;;;;6114784;22;86965;-95
2023/07/14 11:01:09;;;;;;;79.95;23.90;;;26.70;48.50;;;;;;6132313;22;89003;-95
2023/07/14 11:03:43;;;;;;;70.55;22.92;;;27.00;48.50;;;;;;6148897;22;88914;-93
2023/07/14 11:06:27;;;;;;;76.82;22.48;;;27.30;47.80;;;;;;6139104;22;90337;-94
2023/07/14 11:08:57;;;;;;;70.18;22.08;;;27.50;47.40;;;;;;6107147;22;87127;-95
2023/07/14 11:14:54;;;;;;;67.90;20.73;;;27.80;47.10;;;;;;6166096;22;90254;-95
2023/07/14 11:17:38;;;;;;;63.22;20.15;;;27.80;47.10;;;;;;6147142;22;94608;-96
2023/07/14 11:28:42;;;;;;;60.80;18.88;;;27.90;47.50;;;;;;6194341;22;87535;-94
2023/07/14 11:31:35;;;;;;;60.80;19.42;;;27.80;47.60;;;;;;6130717;22;87360;-95
2023/07/14 11:37:07;;;;;;;57.90;18.25;;;27.70;47.60;;;;;;6174763;22;88467;-95
2023/07/14 11:39:46;;;;;;;59.33;18.35;;;27.80;47.40;;;;;;6148241;22;89148;-93
2023/07/14 11:42:23;;;;;;;56.15;17.88;;;27.90;47.60;;;;;;6165070;22;87799;-94
2023/07/14 11:45:00;;;;;;;51.42;17.02;;;27.90;47.50;;;;;;6203004;22;87180;-94
2023/07/14 11:48:01;;;;;;;52.58;17.13;;;27.90;47.40;;;;;;6147356;22;89295;-94
2023/07/14 11:50:47;;;;;;;;;;;;;;;;;;;;;
2023/07/14 11:53:12;;;;;;;54.40;17.00;;;28.00;47.70;;;;;;6182070;22;87474;-94
2023/07/14 11:55:45;;;;;;;59.30;17.35;;;28.00;47.60;;;;;;6176962;22;88036;-93
2023/07/14 11:58:31;;;;;;;44.42;15.23;;;28.10;47.60;;;;;;6169866;22;88768;-93
2023/07/14 12:01:31;;;;;;;44.33;15.10;;;28.10;47.90;;;;;;6151609;22;89283;-94
2023/07/14 12:04:40;;;;;;;49.28;16.63;;;28.10;47.70;;;;;;6192461;22;87614;-94
2023/07/14 12:07:59;;;;;;;41.65;15.02;;;28.10;47.60;;;;;;6173375;22;89387;-93
2023/07/14 12:10:53;;;;;;;43.90;15.13;;;28.20;47.70;;;;;;6173122;22;90125;-95
2023/07/14 12:13:55;;;;;;;44.15;14.73;;;28.30;48.10;;;;;;6184430;22;87273;-95
2023/07/14 12:16:28;;;;;;;40.00;13.95;;;28.40;48.40;;;;;;6198834;22;86923;-95
2023/07/14 12:19:22;;;;;;;41.65;13.80;;;28.30;48.30;;;;;;6208264;22;87246;-95
2023/07/14 12:22:38;;;;;;;34.75;14.13;;;28.30;48.80;;;;;;6191599;22;86701;-94
2023/07/14 12:25:34;;;;;;;36.80;13.27;;;28.30;49.50;;;;;;6177354;22;87272;-95
2023/07/14 12:28:59;;;;;;;36.30;13.13;;;28.30;48.60;;;;;;6205361;22;86740;-94
2023/07/14 12:31:34;;;;;;;38.83;12.93;;;28.30;49.20;;;;;;6175864;22;89097;-93
2023/07/14 12:34:21;;;;;;;40.22;13.82;;;28.20;49.20;;;;;;6157754;22;89928;-94
2023/07/14 12:36:56;;;;;;;38.13;13.37;;;28.30;49.20;;;;;;6181009;22;89698;-93
2023/07/14 12:39:32;;;;;;;38.42;13.10;;;28.30;49.40;;;;;;6158003;22;87704;-94
2023/07/14 12:42:13;;;;;;;38.20;14.00;;;28.30;49.20;;;;;;6175960;22;87861;-94
2023/07/14 12:44:42;;;;;;;39.03;13.50;;;28.40;49.40;;;;;;6203648;22;87914;-96
2023/07/14 12:47:18;;;;;;;32.45;12.35;;;28.40;48.80;;;;;;6155467;22;93592;-94
2023/07/14 12:49:49;;;;;;;37.30;12.90;;;28.30;49.60;;;;;;6153690;22;87453;-93
2023/07/14 12:52:24;;;;;;;29.63;10.77;;;28.10;49.40;;;;;;6172219;22;87381;-95
2023/07/14 12:54:52;;;;;;;35.58;12.23;;;28.00;49.80;;;;;;6183007;22;87754;-94
2023/07/14 12:57:20;;;;;;;27.23;11.75;;;27.90;49.90;;;;;;6163450;22;87937;-95
2023/07/14 12:59:50;;;;;;;33.50;11.70;;;27.80;50.10;;;;;;6170041;22;86574;-94
2023/07/14 13:02:24;;;;;;;35.17;12.82;;;27.80;50.10;;;;;;6163858;22;88721;-93
2023/07/14 13:04:53;;;;;;;34.00;12.50;;;27.80;49.90;;;;;;6146160;22;89930;-95
2023/07/14 13:07:26;;;;;;;35.92;11.43;;;27.80;50.00;;;;;;6173626;22;89681;-95
2023/07/14 13:10:01;;;;;;;25.33;10.15;;;27.90;50.00;;;;;;6174336;22;86815;-95
2023/07/14 13:12:28;;;;;;;29.27;11.60;;;27.90;49.60;;;;;;6175200;22;87215;-95
2023/07/14 13:15:02;;;;;;;20.13;9.85;;;28.00;49.30;;;;;;6171176;22;89650;-95
2023/07/14 13:17:28;;;;;;;23.80;9.75;;;28.00;49.10;;;;;;6150417;22;87412;-95
2023/07/14 13:19:54;;;;;;;22.85;9.88;;;28.00;48.90;;;;;;6155664;22;87161;-95
2023/07/14 13:22:25;;;;;;;25.50;8.98;;;27.80;49.60;;;;;;6152649;22;89206;-96
2023/07/14 13:25:18;;;;;;;27.10;10.35;;;27.40;50.10;;;;;;6153910;22;89406;-95
2023/07/14 13:27:44;;;;;;;23.38;10.20;;;27.30;50.60;;;;;;6147451;22;89974;-93
2023/07/14 13:30:21;;;;;;;24.88;10.00;;;27.20;50.80;;;;;;6182151;22;88341;-94
2023/07/14 13:32:57;;;;;;;22.65;9.55;;;27.10;50.70;;;;;;6174150;22;89233;-95
2023/07/14 13:35:33;;;;;;;22.77;9.15;;;27.00;50.90;;;;;;6177011;22;90652;-95
2023/07/14 13:38:16;;;;;;;27.67;10.73;;;27.00;50.90;;;;;;6146416;22;89591;-95
2023/07/14 13:40:42;;;;;;;22.88;9.45;;;27.00;50.70;;;;;;6167019;22;87445;-94
2023/07/14 13:43:17;;;;;;;26.73;9.45;;;27.10;51.60;;;;;;6163126;22;87756;-94
2023/07/14 13:45:44;;;;;;;20.17;8.68;;;27.10;50.60;;;;;;6151607;22;89079;-94